Terminal Aerodrome Forecast
Issued by NWS Wakefield, VA

Home | Current Version | Previous Version | Text Only | Print | Product List | Glossary On
Versions: 1 2 3 4 5 6 7 8 9 10 11 12 13 14 15 16 17 18
000
FTUS41 KAKQ 202300
TAFRIC
TAF
KRIC 202337Z 2100/2124 19003KT P6SM BKN250
     FM210500 20005KT P6SM BKN100
     FM211500 26008KT P6SM SCT100 BKN200
     FM212000 29007KT P6SM BKN050=

USA.gov is the U.S. government's official web portal to all federal, state and local government web resources and services.